createdAt,value
2023-01-23T00:01:39.823Z,102052.45
2023-01-23T00:04:08.970Z,102052.23
2023-01-23T00:06:36.924Z,102051.33
2023-01-23T00:09:05.184Z,102049.25
2023-01-23T00:11:33.350Z,102047.12
2023-01-23T00:14:02.406Z,102049.41
2023-01-23T00:16:32.963Z,102050.21
2023-01-23T00:19:00.922Z,102050.68
2023-01-23T00:21:30.068Z,102047.76
2023-01-23T00:23:59.814Z,102048.78
2023-01-23T00:26:29.747Z,102048.53
2023-01-23T00:28:57.653Z,102054.13
2023-01-23T00:31:28.340Z,102060.84
2023-01-23T00:33:59.782Z,102061.92
2023-01-23T00:36:30.847Z,102063.61
2023-01-23T00:38:59.774Z,102069.05
2023-01-23T00:41:28.207Z,102072.59
2023-01-23T00:43:56.183Z,102077.75
2023-01-23T00:46:24.238Z,102079.46
2023-01-23T00:48:52.611Z,102082.58
2023-01-23T00:51:20.471Z,102087.72
2023-01-23T00:53:49.170Z,102081.93
2023-01-23T00:56:17.461Z,102082.79
2023-01-23T00:58:45.781Z,102084.89
2023-01-23T01:01:15.918Z,102078.22
2023-01-23T01:03:45.010Z,102078.52
2023-01-23T01:06:14.163Z,102078.96
2023-01-23T01:08:42.159Z,102079.77
2023-01-23T01:11:10.109Z,102084.08
2023-01-23T01:13:38.229Z,102081.64
2023-01-23T01:16:06.964Z,102080.64
2023-01-23T01:18:38.204Z,102083.69
2023-01-23T01:21:11.016Z,102086.23
2023-01-23T01:23:39.487Z,102086.66
2023-01-23T01:26:08.013Z,102089.39
2023-01-23T01:28:38.070Z,102091.70
2023-01-23T01:31:09.883Z,102095.86
2023-01-23T01:33:39.289Z,102101.92
2023-01-23T01:36:19.682Z,102105.61
2023-01-23T01:38:48.246Z,102102.70
2023-01-23T01:41:17.196Z,102105.59
2023-01-23T01:43:45.760Z,102105.11
2023-01-23T01:46:33.279Z,102102.19
2023-01-23T01:49:05.532Z,102106.66
2023-01-23T01:51:36.712Z,102108.26
2023-01-23T01:54:04.874Z,102108.05
2023-01-23T01:56:41.654Z,102112.16
2023-01-23T01:59:11.550Z,102109.84
2023-01-23T02:01:41.355Z,102112.54
2023-01-23T02:04:09.962Z,102111.12
2023-01-23T02:06:38.241Z,102118.74
2023-01-23T02:09:33.706Z,102122.64
2023-01-23T02:12:02.765Z,102121.16
2023-01-23T02:14:31.098Z,102124.35
2023-01-23T02:17:01.170Z,102125.04
2023-01-23T02:19:59.905Z,102124.67
2023-01-23T02:22:54.044Z,102128.89
2023-01-23T02:26:01.715Z,102133.04
2023-01-23T02:28:39.141Z,102131.35
2023-01-23T02:31:08.436Z,102133.45
2023-01-23T02:33:36.320Z,102133.55
2023-01-23T02:36:09.031Z,102136.27
2023-01-23T02:38:52.737Z,102138.39
2023-01-23T02:41:27.519Z,102144.46
2023-01-23T02:43:58.493Z,102141.83
2023-01-23T02:46:27.334Z,102134.70
2023-01-23T02:48:55.153Z,102131.16
2023-01-23T02:51:24.732Z,102127.98
2023-01-23T02:53:53.131Z,102128.98
2023-01-23T02:56:21.669Z,102131.45
2023-01-23T02:59:08.239Z,102135.92
2023-01-23T03:01:36.588Z,102131.23
2023-01-23T03:04:06.517Z,102128.60
2023-01-23T03:06:37.749Z,102130.70
2023-01-23T03:09:12.999Z,102129.80
2023-01-23T03:11:42.846Z,102130.67
2023-01-23T03:14:17.997Z,102126.73
2023-01-23T03:16:51.526Z,102130.33
2023-01-23T03:19:23.289Z,102139.73
2023-01-23T03:21:51.996Z,102144.50
2023-01-23T03:24:21.615Z,102147.38
2023-01-23T03:26:50.831Z,102145.52
2023-01-23T03:29:41.052Z,102148.86
2023-01-23T03:32:13.141Z,102151.51
2023-01-23T03:34:44.349Z,102152.22
2023-01-23T03:37:13.608Z,102151.25
2023-01-23T03:40:02.302Z,102153.49
2023-01-23T03:42:33.785Z,102159.59
2023-01-23T03:45:03.033Z,102163.09
2023-01-23T03:47:32.585Z,102165.16
2023-01-23T03:50:00.900Z,102169.02
2023-01-23T03:52:31.977Z,102174.34
2023-01-23T03:54:59.789Z,102170.91
2023-01-23T03:57:27.633Z,102166.65
2023-01-23T04:05:18.767Z,102163.04
2023-01-23T04:07:46.903Z,102163.66
2023-01-23T04:10:16.006Z,102168.42
2023-01-23T04:12:44.968Z,102174.36
2023-01-23T04:15:14.408Z,102175.89
2023-01-23T04:17:42.783Z,102180.08
2023-01-23T04:20:12.631Z,102181.77
2023-01-23T04:22:42.680Z,102182.02
2023-01-23T04:25:11.053Z,102185.33
2023-01-23T04:27:39.140Z,102175.23
2023-01-23T04:34:39.198Z,102178.44
2023-01-23T04:37:07.384Z,102186.38
2023-01-23T04:39:35.649Z,102191.78
2023-01-23T04:42:03.639Z,102195.93
2023-01-23T04:44:47.459Z,102191.37
2023-01-23T04:47:35.949Z,102191.84
2023-01-23T04:50:05.571Z,102198.06
2023-01-23T04:52:35.846Z,102200.64
2023-01-23T04:55:05.797Z,102202.55
2023-01-23T04:57:33.710Z,102201.79
2023-01-23T05:00:13.762Z,102204.20
2023-01-23T05:02:41.885Z,102202.06
2023-01-23T05:05:10.577Z,102192.14
2023-01-23T05:07:38.932Z,102185.88
2023-01-23T05:10:10.804Z,102189.02
2023-01-23T05:12:39.001Z,102189.61
2023-01-23T05:15:08.187Z,102190.73
2023-01-23T05:17:38.618Z,102194.79
2023-01-23T05:20:07.826Z,102195.30
2023-01-23T05:22:37.584Z,102192.35
2023-01-23T05:25:06.053Z,102200.23
2023-01-23T05:27:34.328Z,102206.27
2023-01-23T05:30:02.318Z,102211.86
2023-01-23T05:32:33.498Z,102207.79
2023-01-23T05:35:12.089Z,102210.90
2023-01-23T05:37:41.061Z,102206.33
2023-01-23T05:40:13.343Z,102208.98
2023-01-23T05:42:59.583Z,102214.36
2023-01-23T05:45:46.021Z,102225.98
2023-01-23T05:48:23.267Z,102229.07
2023-01-23T05:50:51.178Z,102236.91
2023-01-23T05:53:19.309Z,102241.81
2023-01-23T05:55:47.135Z,102242.14
2023-01-23T05:58:16.111Z,102244.20
2023-01-23T06:00:50.547Z,102249.36
2023-01-23T06:03:53.906Z,102256.95
2023-01-23T06:06:45.029Z,102263.87
2023-01-23T06:09:13.168Z,102263.50
2023-01-23T06:11:41.168Z,102265.37
2023-01-23T06:14:10.268Z,102266.54
2023-01-23T06:16:38.221Z,102269.75
2023-01-23T06:19:06.440Z,102271.28
2023-01-23T06:21:36.217Z,102274.98
2023-01-23T06:24:04.868Z,102274.69
2023-01-23T06:26:32.783Z,102274.42
2023-01-23T06:29:00.576Z,102279.33
2023-01-23T06:31:30.478Z,102287.64
2023-01-23T06:34:00.543Z,102293.70
2023-01-23T06:36:36.891Z,102299.81
2023-01-23T06:39:05.309Z,102301.04
2023-01-23T06:41:41.777Z,102311.04
2023-01-23T06:44:12.998Z,102316.24
2023-01-23T06:46:41.419Z,102320.02
2023-01-23T06:49:10.287Z,102327.36
2023-01-23T06:51:38.747Z,102327.98
2023-01-23T06:54:08.600Z,102341.64
2023-01-23T06:56:36.507Z,102344.09
2023-01-23T06:59:06.803Z,102343.05
2023-01-23T07:01:34.793Z,102342.77
2023-01-23T07:04:32.959Z,102342.49
2023-01-23T07:07:00.915Z,102344.43
2023-01-23T07:09:30.267Z,102343.63
2023-01-23T07:12:09.379Z,102343.82
2023-01-23T07:14:37.420Z,102346.11
2023-01-23T07:17:05.470Z,102350.88
2023-01-23T07:19:33.532Z,102350.31
2023-01-23T07:22:01.760Z,102353.80
2023-01-23T07:24:30.182Z,102347.89
2023-01-23T07:26:58.457Z,102350.27
2023-01-23T07:29:26.689Z,102355.45
2023-01-23T07:31:57.401Z,102358.21
2023-01-23T07:34:27.754Z,102355.41
2023-01-23T07:36:55.841Z,102354.34
2023-01-23T07:39:23.735Z,102353.20
2023-01-23T07:41:51.799Z,102348.17
2023-01-23T07:44:22.196Z,102349.68
2023-01-23T07:46:50.316Z,102351.35
2023-01-23T07:49:18.507Z,102351.88
2023-01-23T07:51:46.574Z,102358.31
2023-01-23T07:54:14.732Z,102360.11
2023-01-23T07:56:43.022Z,102368.16
2023-01-23T07:59:13.238Z,102372.86
2023-01-23T08:01:41.213Z,102373.67
2023-01-23T08:04:09.203Z,102374.26
2023-01-23T08:06:38.314Z,102378.76
2023-01-23T08:09:06.468Z,102376.50
2023-01-23T08:11:34.571Z,102376.50
2023-01-23T08:14:02.531Z,102374.92
2023-01-23T08:16:31.021Z,102374.44
2023-01-23T08:18:59.091Z,102375.47
2023-01-23T08:21:27.034Z,102378.58
2023-01-23T08:23:54.966Z,102381.38
2023-01-23T08:26:22.891Z,102384.69
2023-01-23T08:28:51.234Z,102386.34
2023-01-23T08:31:19.241Z,102388.89
2023-01-23T08:33:47.233Z,102390.37
2023-01-23T08:36:15.433Z,102395.95
2023-01-23T08:38:43.647Z,102400.52
2023-01-23T08:41:11.970Z,102402.15
2023-01-23T08:43:41.767Z,102406.18
2023-01-23T08:46:11.606Z,102413.02
2023-01-23T08:48:40.032Z,102411.81
2023-01-23T08:51:12.962Z,102411.73
2023-01-23T08:53:42.169Z,102416.14
2023-01-23T08:56:22.047Z,102415.18
2023-01-23T08:58:51.024Z,102418.99
2023-01-23T09:01:21.724Z,102419.13
2023-01-23T09:03:50.323Z,102419.77
2023-01-23T09:06:20.661Z,102419.11
2023-01-23T09:08:49.273Z,102416.80
2023-01-23T09:11:17.913Z,102414.17
2023-01-23T09:13:47.015Z,102410.77
2023-01-23T09:16:15.677Z,102414.52
2023-01-23T09:18:43.772Z,102405.17
2023-01-23T09:21:15.744Z,102407.45
2023-01-23T09:23:44.291Z,102400.79
2023-01-23T09:26:14.158Z,102401.61
2023-01-23T09:28:43.165Z,102399.90
2023-01-23T09:31:13.579Z,102396.48
2023-01-23T09:33:42.370Z,102394.98
2023-01-23T09:36:11.034Z,102398.36
2023-01-23T09:38:39.270Z,102398.44
2023-01-23T09:41:10.770Z,102398.09
2023-01-23T09:44:07.394Z,102399.30
2023-01-23T09:46:45.266Z,102396.35
2023-01-23T09:49:21.578Z,102392.33
2023-01-23T09:52:01.652Z,102396.20
2023-01-23T09:54:45.059Z,102396.13
2023-01-23T09:57:19.173Z,102396.21
2023-01-23T10:00:00.797Z,102402.23
2023-01-23T10:02:29.814Z,102400.91
2023-01-23T10:05:01.689Z,102402.16
2023-01-23T10:07:42.634Z,102399.79
2023-01-23T10:10:19.290Z,102399.06
2023-01-23T10:13:18.223Z,102396.58
2023-01-23T10:16:04.474Z,102395.45
2023-01-23T10:18:54.495Z,102397.56
2023-01-23T10:21:37.301Z,102396.71
2023-01-23T10:24:45.368Z,102394.78
2023-01-23T10:27:18.777Z,102399.96
2023-01-23T10:29:59.401Z,102397.31
2023-01-23T10:32:37.675Z,102394.78
2023-01-23T10:35:15.474Z,102392.79
2023-01-23T10:37:51.000Z,102397.22
2023-01-23T10:40:42.747Z,102395.61
2023-01-23T10:43:21.946Z,102396.54
2023-01-23T10:45:50.976Z,102393.98
2023-01-23T10:48:41.391Z,102392.81
2023-01-23T10:51:26.482Z,102397.50
2023-01-23T10:54:32.850Z,102400.48
2023-01-23T10:57:04.903Z,102401.32
2023-01-23T10:59:40.338Z,102399.84
2023-01-23T11:04:36.867Z,102397.51
2023-01-23T11:07:24.007Z,102394.67
2023-01-23T11:10:16.928Z,102395.77
2023-01-23T11:12:54.420Z,102395.61
2023-01-23T11:15:27.066Z,102394.55
2023-01-23T11:17:57.857Z,102393.42
2023-01-23T11:20:37.279Z,102388.85
2023-01-23T11:23:06.905Z,102386.64
2023-01-23T11:25:39.258Z,102388.98
2023-01-23T11:28:19.614Z,102385.68
2023-01-23T11:30:58.344Z,102383.05
2023-01-23T11:33:44.435Z,102381.13
2023-01-23T11:36:20.270Z,102373.80
2023-01-23T11:38:54.637Z,102376.70
2023-01-23T11:41:32.200Z,102374.52
2023-01-23T11:44:09.985Z,102374.10
2023-01-23T11:47:00.629Z,102374.39
2023-01-23T11:49:34.455Z,102372.82
2023-01-23T11:52:05.385Z,102369.11
2023-01-23T11:55:12.667Z,102366.98
2023-01-23T11:57:49.656Z,102363.92
2023-01-23T12:00:32.922Z,102364.48
2023-01-23T12:03:14.813Z,102366.77
2023-01-23T12:06:18.711Z,102358.80
2023-01-23T12:09:05.481Z,102359.86
2023-01-23T12:12:04.314Z,102363.70
2023-01-23T12:15:23.386Z,102363.65
2023-01-23T12:18:19.226Z,102369.26
2023-01-23T12:21:17.311Z,102369.30
2023-01-23T12:24:09.948Z,102366.35
2023-01-23T12:26:54.906Z,102370.26
2023-01-23T12:29:58.407Z,102368.51
2023-01-23T12:32:47.230Z,102374.67
2023-01-23T12:35:15.167Z,102373.89
2023-01-23T12:38:08.891Z,102375.88
2023-01-23T12:40:39.996Z,102374.06
2023-01-23T12:43:36.590Z,102373.02
2023-01-23T12:47:00.041Z,102374.17
2023-01-23T12:49:41.092Z,102376.37
2023-01-23T12:52:23.761Z,102376.59
2023-01-23T12:55:01.143Z,102379.15
2023-01-23T12:57:58.958Z,102376.25
2023-01-23T13:00:36.984Z,102382.16
2023-01-23T13:03:24.601Z,102385.67
2023-01-23T13:06:01.738Z,102381.63
2023-01-23T13:09:02.499Z,102388.25
2023-01-23T13:11:47.474Z,102390.86
2023-01-23T13:14:44.565Z,102394.86
2023-01-23T13:17:30.863Z,102400.64
2023-01-23T13:20:53.554Z,102400.97
2023-01-23T13:23:25.534Z,102403.65
2023-01-23T13:26:12.194Z,102408.61
2023-01-23T13:28:47.972Z,102406.28
2023-01-23T13:31:37.872Z,102409.48
2023-01-23T13:34:32.067Z,102408.55
2023-01-23T13:37:28.952Z,102411.77
2023-01-23T13:40:17.287Z,102411.34
2023-01-23T13:42:45.485Z,102415.61
2023-01-23T13:45:16.272Z,102416.22
2023-01-23T14:22:44.986Z,102431.14
2023-01-23T14:25:18.385Z,102428.89
2023-01-23T14:27:54.463Z,102425.63
2023-01-23T14:30:27.340Z,102424.33
2023-01-23T14:32:56.065Z,102429.59
2023-01-23T14:35:27.444Z,102426.92
2023-01-23T14:37:59.317Z,102426.38
2023-01-23T14:40:33.235Z,102428.67
2023-01-23T14:43:07.989Z,102434.74
2023-01-23T14:45:37.386Z,102435.36
2023-01-23T14:48:08.008Z,102438.23
2023-01-23T14:50:36.361Z,102441.95
2023-01-23T14:53:07.445Z,102444.34
2023-01-23T14:55:39.875Z,102442.24
2023-01-23T14:58:15.359Z,102440.58
2023-01-23T15:00:45.396Z,102435.77
2023-01-23T15:03:33.455Z,102437.60
2023-01-23T15:09:14.582Z,102439.24
2023-01-23T15:11:45.106Z,102443.04
2023-01-23T15:14:40.083Z,102441.02
2023-01-23T15:17:15.578Z,102442.41
2023-01-23T15:19:49.576Z,102443.67
2023-01-23T15:22:26.400Z,102447.33
2023-01-23T15:24:54.677Z,102446.72
2023-01-23T15:27:34.852Z,102444.33
2023-01-23T15:30:48.683Z,102443.52
2023-01-23T15:33:27.468Z,102446.36
2023-01-23T15:36:07.421Z,102451.34
2023-01-23T15:38:36.131Z,102457.13
2023-01-23T15:41:09.562Z,102457.05
2023-01-23T15:43:37.787Z,102456.98
2023-01-23T15:46:09.628Z,102455.32
2023-01-23T15:48:37.624Z,102452.70
2023-01-23T15:51:06.259Z,102455.79
2023-01-23T15:53:35.477Z,102461.01
2023-01-23T15:56:09.163Z,102462.19
2023-01-23T15:58:37.642Z,102461.40
2023-01-23T16:01:05.891Z,102463.50
2023-01-23T16:03:33.974Z,102464.21
2023-01-23T16:06:02.078Z,102464.16
2023-01-23T16:08:30.067Z,102464.66
2023-01-23T16:10:57.984Z,102466.80
2023-01-23T16:13:25.980Z,102467.05
2023-01-23T16:15:54.071Z,102467.23
2023-01-23T16:18:23.859Z,102466.39
2023-01-23T16:20:51.897Z,102464.95
2023-01-23T16:23:24.783Z,102465.34
2023-01-23T16:25:53.710Z,102463.83
2023-01-23T16:28:24.414Z,102467.42
2023-01-23T16:30:53.127Z,102467.08
2023-01-23T16:33:21.995Z,102468.52
2023-01-23T16:35:51.553Z,102467.83
2023-01-23T16:38:25.689Z,102469.00
2023-01-23T16:40:56.887Z,102473.17
2023-01-23T16:43:25.156Z,102470.52
2023-01-23T16:45:56.130Z,102470.81
2023-01-23T16:48:27.997Z,102470.26
2023-01-23T16:50:58.930Z,102471.74
2023-01-23T16:53:31.554Z,102475.29
2023-01-23T16:56:02.052Z,102473.29
2023-01-23T16:58:35.066Z,102476.33
2023-01-23T17:01:11.180Z,102476.92
2023-01-23T17:03:43.004Z,102480.20
2023-01-23T17:06:15.228Z,102483.63
2023-01-23T17:08:43.834Z,102487.11
2023-01-23T17:11:20.237Z,102485.08
2023-01-23T17:13:53.042Z,102485.48
2023-01-23T17:16:27.457Z,102481.30
2023-01-23T17:18:59.162Z,102484.73
2023-01-23T17:21:33.420Z,102488.64
2023-01-23T17:24:01.586Z,102488.13
2023-01-23T17:26:29.607Z,102486.92
2023-01-23T17:28:57.633Z,102484.55
2023-01-23T17:31:28.619Z,102486.14
2023-01-23T17:33:56.941Z,102488.06
2023-01-23T17:36:26.665Z,102488.80
2023-01-23T17:38:57.469Z,102493.27
2023-01-23T17:41:26.140Z,102492.73
2023-01-23T17:43:54.401Z,102490.40
2023-01-23T17:46:28.217Z,102491.66
2023-01-23T17:48:57.077Z,102495.16
2023-01-23T17:51:26.204Z,102491.86
2023-01-23T17:53:55.252Z,102491.89
2023-01-23T17:56:23.532Z,102497.71
2023-01-23T17:58:51.521Z,102497.69
2023-01-23T18:01:25.381Z,102496.64
2023-01-23T18:03:57.201Z,102501.45
2023-01-23T18:06:25.246Z,102502.52
2023-01-23T18:08:53.270Z,102505.65
2023-01-23T18:11:23.513Z,102505.75
2023-01-23T18:14:15.557Z,102507.58
2023-01-23T18:16:45.567Z,102503.02
2023-01-23T18:19:22.870Z,102500.92
2023-01-23T18:21:53.763Z,102494.25
2023-01-23T18:24:30.374Z,102492.38
2023-01-23T18:27:02.931Z,102487.43
2023-01-23T18:29:40.793Z,102490.94
2023-01-23T18:32:23.911Z,102495.44
2023-01-23T18:35:29.321Z,102497.94
2023-01-23T18:38:05.931Z,102496.59
2023-01-23T18:40:56.538Z,102493.17
2023-01-23T18:43:35.189Z,102498.85
2023-01-23T18:46:03.547Z,102500.23
2023-01-23T18:48:34.198Z,102498.52
2023-01-23T18:51:15.661Z,102498.15
2023-01-23T18:53:54.289Z,102495.85
2023-01-23T18:56:50.354Z,102492.89
2023-01-23T18:59:36.897Z,102495.30
2023-01-23T19:05:05.571Z,102494.11
2023-01-23T19:07:33.736Z,102494.27
2023-01-23T19:10:01.979Z,102492.94
2023-01-23T19:12:42.735Z,102497.95
2023-01-23T19:15:23.318Z,102500.70
2023-01-23T19:17:56.557Z,102497.35
2023-01-23T19:20:32.981Z,102498.38
2023-01-23T19:23:06.715Z,102493.70
2023-01-23T19:25:34.907Z,102498.27
2023-01-23T19:28:03.329Z,102499.42
2023-01-23T19:30:32.237Z,102504.08
2023-01-23T19:33:00.283Z,102504.59
2023-01-23T19:35:28.523Z,102507.14
2023-01-23T19:37:56.955Z,102506.55
2023-01-23T19:40:24.857Z,102510.04
2023-01-23T19:43:12.542Z,102511.36
2023-01-23T19:45:42.017Z,102507.15
2023-01-23T19:48:10.868Z,102505.92
2023-01-23T19:50:39.243Z,102506.73
2023-01-23T19:53:07.349Z,102508.42
2023-01-23T19:55:38.395Z,102510.77
2023-01-23T19:58:06.797Z,102512.84
2023-01-23T20:00:36.268Z,102511.80
2023-01-23T20:03:05.125Z,102513.35
2023-01-23T20:05:33.194Z,102514.79
2023-01-23T20:08:01.250Z,102513.19
2023-01-23T20:10:29.686Z,102512.62
2023-01-23T20:12:57.612Z,102515.78
2023-01-23T20:15:26.348Z,102512.42
2023-01-23T20:17:54.692Z,102513.10
2023-01-23T20:20:22.980Z,102518.48
2023-01-23T20:22:51.266Z,102515.33
2023-01-23T20:25:19.639Z,102515.80
2023-01-23T20:27:47.767Z,102515.73
2023-01-23T20:30:19.713Z,102513.86
2023-01-23T20:32:48.172Z,102512.98
2023-01-23T20:35:16.340Z,102513.20
2023-01-23T20:37:44.515Z,102511.98
2023-01-23T20:40:12.601Z,102511.33
2023-01-23T20:42:41.025Z,102517.00
2023-01-23T20:45:09.779Z,102516.91
2023-01-23T20:47:38.005Z,102516.23
2023-01-23T20:50:07.519Z,102516.44
2023-01-23T20:53:13.538Z,102516.06
2023-01-23T20:55:41.550Z,102517.11
2023-01-23T20:58:28.263Z,102517.96
2023-01-23T21:00:56.576Z,102524.30
2023-01-23T21:03:24.895Z,102519.20
2023-01-23T21:05:52.998Z,102523.30
2023-01-23T21:08:20.973Z,102526.09
2023-01-23T21:10:49.068Z,102525.68
2023-01-23T21:13:17.160Z,102523.63
2023-01-23T21:15:45.370Z,102519.64
2023-01-23T21:18:13.492Z,102524.80
2023-01-23T21:20:41.547Z,102524.80
2023-01-23T21:23:09.620Z,102522.80
2023-01-23T21:25:38.050Z,102525.39
2023-01-23T21:28:10.198Z,102526.10
2023-01-23T21:30:39.009Z,102526.42
2023-01-23T21:33:07.796Z,102525.27
2023-01-23T21:35:36.006Z,102523.56
2023-01-23T21:38:04.180Z,102527.80
2023-01-23T21:40:33.120Z,102525.13
2023-01-23T21:43:01.110Z,102529.05
2023-01-23T21:45:29.229Z,102525.30
2023-01-23T21:47:58.375Z,102526.19
2023-01-23T21:50:26.557Z,102527.19
2023-01-23T21:52:55.049Z,102528.84
2023-01-23T21:55:23.346Z,102530.04
2023-01-23T21:57:51.532Z,102530.42
2023-01-23T22:00:38.407Z,102531.70
2023-01-23T22:03:06.413Z,102530.71
2023-01-23T22:05:38.215Z,102526.29
2023-01-23T22:08:07.096Z,102525.59
2023-01-23T22:10:35.553Z,102523.68
2023-01-23T22:13:03.945Z,102518.48
2023-01-23T22:15:32.050Z,102520.77
2023-01-23T22:17:59.930Z,102524.41
2023-01-23T22:20:27.879Z,102527.64
2023-01-23T22:22:55.790Z,102525.58
2023-01-23T22:25:23.911Z,102528.29
2023-01-23T22:27:51.885Z,102525.06
2023-01-23T22:30:19.955Z,102529.08
2023-01-23T22:32:47.937Z,102526.58
2023-01-23T22:35:16.352Z,102529.70
2023-01-23T22:37:44.391Z,102529.23
2023-01-23T22:40:12.460Z,102531.30
2023-01-23T22:42:40.378Z,102531.80
2023-01-23T22:45:09.886Z,102536.12
2023-01-23T22:47:38.026Z,102545.29
2023-01-23T22:50:07.079Z,102547.09
2023-01-23T22:52:35.058Z,102542.73
2023-01-23T22:55:03.236Z,102541.77
2023-01-23T22:57:31.352Z,102541.89
2023-01-23T22:59:59.424Z,102545.01
2023-01-23T23:02:27.351Z,102548.21
2023-01-23T23:04:55.429Z,102550.02
2023-01-23T23:07:23.375Z,102549.37
2023-01-23T23:09:51.644Z,102551.27
2023-01-23T23:12:19.585Z,102551.09
2023-01-23T23:14:47.682Z,102553.46
2023-01-23T23:20:04.767Z,102552.69
2023-01-23T23:22:32.968Z,102555.65
2023-01-23T23:25:00.974Z,102554.35
2023-01-23T23:27:29.386Z,102553.40
2023-01-23T23:29:57.415Z,102553.16
2023-01-23T23:32:25.619Z,102549.27
2023-01-23T23:34:53.625Z,102554.23
2023-01-23T23:37:21.562Z,102554.40
2023-01-23T23:39:49.654Z,102552.24
2023-01-23T23:42:20.081Z,102552.02
2023-01-23T23:44:48.082Z,102552.15
2023-01-23T23:47:16.150Z,102548.45
2023-01-23T23:49:44.323Z,102543.95
2023-01-23T23:52:12.345Z,102542.02
2023-01-23T23:54:40.266Z,102542.46
2023-01-23T23:57:08.274Z,102538.95
2023-01-23T23:59:36.386Z,102543.89
